createdAt,value
2022-10-01T00:01:14.523Z,64.20
2022-10-01T00:03:42.329Z,64.50
2022-10-01T00:06:17.790Z,64.70
2022-10-01T00:08:49.057Z,65.20
2022-10-01T00:11:25.764Z,65.30
2022-10-01T00:13:53.882Z,65.40
2022-10-01T00:16:23.547Z,65.70
2022-10-01T00:18:53.612Z,65.90
2022-10-01T00:21:25.794Z,66.00
2022-10-01T00:24:04.712Z,66.20
2022-10-01T00:26:34.354Z,66.40
2022-10-01T00:29:07.481Z,66.50
2022-10-01T00:31:35.062Z,66.70
2022-10-01T00:34:03.358Z,66.70
2022-10-01T00:36:31.897Z,68.30
2022-10-01T00:39:00.981Z,68.20
2022-10-01T00:41:33.706Z,68.50
2022-10-01T00:44:03.694Z,69.20
2022-10-01T00:46:33.297Z,70.00
2022-10-01T00:49:07.101Z,70.50
2022-10-01T00:51:44.141Z,70.90
2022-10-01T00:54:19.905Z,71.00
2022-10-01T00:56:47.961Z,71.30
2022-10-01T00:59:16.418Z,71.50
2022-10-01T01:01:43.473Z,71.60
2022-10-01T01:04:16.816Z,71.80
2022-10-01T01:06:55.855Z,71.90
2022-10-01T01:09:35.827Z,72.00
2022-10-01T01:12:19.307Z,71.90
2022-10-01T01:14:48.773Z,71.90
2022-10-01T01:17:25.699Z,72.10
2022-10-01T01:20:14.352Z,72.30
2022-10-01T01:22:55.711Z,72.30
2022-10-01T01:25:31.313Z,72.00
2022-10-01T01:28:31.776Z,72.00
2022-10-01T01:31:08.104Z,72.40
2022-10-01T01:33:38.107Z,72.20
2022-10-01T01:36:10.975Z,72.20
2022-10-01T01:38:49.115Z,72.40
2022-10-01T01:41:17.133Z,72.30
2022-10-01T01:43:47.115Z,72.40
2022-10-01T01:46:17.702Z,72.70
2022-10-01T01:48:49.467Z,73.20
2022-10-01T01:51:34.323Z,72.50
2022-10-01T01:54:01.629Z,72.50
2022-10-01T01:56:31.137Z,72.50
2022-10-01T01:58:59.292Z,72.20
2022-10-01T02:01:39.681Z,72.30
2022-10-01T02:04:14.640Z,72.60
2022-10-01T02:06:49.999Z,73.00
2022-10-01T02:09:26.740Z,72.90
2022-10-01T02:12:19.766Z,72.70
2022-10-01T02:15:11.247Z,73.00
2022-10-01T02:17:54.071Z,72.70
2022-10-01T02:20:31.426Z,72.60
2022-10-01T02:23:27.793Z,72.70
2022-10-01T02:26:01.499Z,72.50
2022-10-01T02:28:29.978Z,73.20
2022-10-01T02:30:58.555Z,72.40
2022-10-01T02:33:30.737Z,72.10
2022-10-01T02:35:59.960Z,72.40
2022-10-01T02:38:28.273Z,72.30
2022-10-01T02:41:01.266Z,72.20
2022-10-01T02:43:34.303Z,72.30
2022-10-01T02:46:15.074Z,72.70
2022-10-01T02:48:42.121Z,72.50
2022-10-01T02:51:37.299Z,72.30
2022-10-01T02:54:34.833Z,72.70
2022-10-01T02:57:20.383Z,72.80
2022-10-01T02:59:47.777Z,72.50
2022-10-01T03:02:14.998Z,72.50
2022-10-01T03:04:41.968Z,72.50
2022-10-01T03:07:08.854Z,72.50
2022-10-01T03:09:36.805Z,72.80
2022-10-01T03:12:04.278Z,73.00
2022-10-01T03:14:32.317Z,73.10
2022-10-01T03:16:59.168Z,73.00
2022-10-01T03:19:26.000Z,73.00
2022-10-01T03:21:52.782Z,73.00
2022-10-01T03:24:19.532Z,72.90
2022-10-01T03:26:46.382Z,72.80
2022-10-01T03:29:13.364Z,72.80
2022-10-01T03:31:40.221Z,72.70
2022-10-01T03:34:07.133Z,72.80
2022-10-01T03:36:34.123Z,72.80
2022-10-01T03:39:00.916Z,72.80
2022-10-01T03:41:28.074Z,72.70
2022-10-01T03:43:59.663Z,72.50
2022-10-01T03:46:27.345Z,72.70
2022-10-01T03:48:55.765Z,72.70
2022-10-01T03:51:22.488Z,73.50
2022-10-01T03:53:49.843Z,72.70
2022-10-01T03:56:17.207Z,72.60
2022-10-01T03:58:44.078Z,72.80
2022-10-01T04:01:10.910Z,72.60
2022-10-01T04:03:37.927Z,72.80
2022-10-01T04:06:04.780Z,72.70
2022-10-01T04:08:31.679Z,72.70
2022-10-01T04:11:00.911Z,72.80
2022-10-01T04:13:29.949Z,73.00
2022-10-01T04:15:56.780Z,72.70
2022-10-01T04:18:23.749Z,72.80
2022-10-01T04:20:50.525Z,72.70
2022-10-01T04:23:17.572Z,72.80
2022-10-01T04:25:44.373Z,72.70
2022-10-01T04:28:13.641Z,72.70
2022-10-01T04:30:42.728Z,72.60
2022-10-01T04:33:13.479Z,72.60
2022-10-01T04:35:41.098Z,72.50
2022-10-01T04:38:13.199Z,72.50
2022-10-01T04:40:40.074Z,72.50
2022-10-01T04:43:10.893Z,72.40
2022-10-01T04:45:38.094Z,72.60
2022-10-01T04:48:05.293Z,72.70
2022-10-01T04:50:32.691Z,72.50
2022-10-01T04:52:59.695Z,72.50
2022-10-01T04:55:26.829Z,72.40
2022-10-01T04:57:53.752Z,72.20
2022-10-01T05:00:24.510Z,72.20
2022-10-01T05:02:52.761Z,72.30
2022-10-01T05:05:22.232Z,72.30
2022-10-01T05:07:49.364Z,72.40
2022-10-01T05:10:19.863Z,72.40
2022-10-01T05:12:47.595Z,72.20
2022-10-01T05:15:15.827Z,72.00
2022-10-01T05:17:43.202Z,71.90
2022-10-01T05:20:22.880Z,71.90
2022-10-01T05:22:49.688Z,72.00
2022-10-01T05:25:17.876Z,71.70
2022-10-01T05:27:45.126Z,71.60
2022-10-01T05:30:14.137Z,71.30
2022-10-01T05:32:41.896Z,71.20
2022-10-01T05:35:09.504Z,71.20
2022-10-01T05:37:36.520Z,71.00
2022-10-01T05:40:06.338Z,70.90
2022-10-01T05:42:33.116Z,70.90
2022-10-01T05:44:59.902Z,70.80
2022-10-01T05:47:26.654Z,70.60
2022-10-01T05:49:53.567Z,70.60
2022-10-01T05:52:20.522Z,70.40
2022-10-01T05:54:47.531Z,70.40
2022-10-01T05:57:14.399Z,70.30
2022-10-01T05:59:41.234Z,70.30
2022-10-01T06:02:09.961Z,70.10
2022-10-01T06:04:41.023Z,70.80
2022-10-01T06:07:08.330Z,69.70
2022-10-01T06:09:35.081Z,69.80
2022-10-01T06:12:02.650Z,69.60
2022-10-01T06:14:29.911Z,69.50
2022-10-01T06:16:56.766Z,69.30
2022-10-01T06:19:23.626Z,69.30
2022-10-01T06:21:51.344Z,69.30
2022-10-01T06:24:18.199Z,69.10
2022-10-01T06:26:45.029Z,69.10
2022-10-01T06:29:11.857Z,69.00
2022-10-01T06:31:39.225Z,68.80
2022-10-01T06:34:06.321Z,68.60
2022-10-01T06:36:34.133Z,68.60
2022-10-01T06:39:01.175Z,68.50
2022-10-01T06:41:27.994Z,68.40
2022-10-01T06:43:54.857Z,68.40
2022-10-01T06:46:21.710Z,68.40
2022-10-01T06:48:49.061Z,68.40
2022-10-01T06:51:16.027Z,68.40
2022-10-01T06:53:42.854Z,68.40
2022-10-01T06:56:10.020Z,68.60
2022-10-01T06:58:37.469Z,68.60
2022-10-01T07:01:04.426Z,68.60
2022-10-01T07:03:31.632Z,68.90
2022-10-01T07:06:05.843Z,68.90
2022-10-01T07:08:33.233Z,69.40
2022-10-01T07:11:02.749Z,68.60
2022-10-01T07:13:30.045Z,68.60
2022-10-01T07:15:56.966Z,68.50
2022-10-01T07:18:24.002Z,68.60
2022-10-01T07:20:51.049Z,68.70
2022-10-01T07:23:18.203Z,68.70
2022-10-01T07:25:45.890Z,68.60
2022-10-01T07:28:17.901Z,68.60
2022-10-01T07:31:17.033Z,68.40
2022-10-01T07:33:43.776Z,68.70
2022-10-01T07:36:12.417Z,68.50
2022-10-01T07:38:39.253Z,68.70
2022-10-01T07:41:06.265Z,68.80
2022-10-01T07:43:34.738Z,68.80
2022-10-01T07:46:01.963Z,68.90
2022-10-01T07:48:29.097Z,69.00
2022-10-01T07:50:57.908Z,68.60
2022-10-01T07:53:25.711Z,68.50
2022-10-01T07:55:52.506Z,68.10
2022-10-01T07:58:24.087Z,67.60
2022-10-01T08:00:55.982Z,67.40
2022-10-01T08:03:23.065Z,67.70
2022-10-01T08:05:52.971Z,68.00
2022-10-01T08:08:19.798Z,68.10
2022-10-01T08:10:47.085Z,68.20
2022-10-01T08:13:15.423Z,67.80
2022-10-01T08:15:43.881Z,67.10
2022-10-01T08:18:11.355Z,66.80
2022-10-01T08:20:42.200Z,67.10
2022-10-01T08:23:11.375Z,67.30
2022-10-01T08:25:39.902Z,67.50
2022-10-01T08:28:07.703Z,67.50
2022-10-01T08:30:36.866Z,67.80
2022-10-01T08:33:04.284Z,67.70
2022-10-01T08:35:31.347Z,67.70
2022-10-01T08:38:02.664Z,67.80
2022-10-01T08:40:30.445Z,67.80
2022-10-01T08:43:06.474Z,68.00
2022-10-01T08:45:44.774Z,68.00
2022-10-01T08:48:36.849Z,68.50
2022-10-01T08:51:34.001Z,68.10
2022-10-01T08:54:17.223Z,68.30
2022-10-01T08:56:46.785Z,68.30
2022-10-01T08:59:27.508Z,67.90
2022-10-01T09:01:56.493Z,67.80
2022-10-01T09:04:24.289Z,67.70
2022-10-01T09:07:07.237Z,67.50
2022-10-01T09:09:59.605Z,67.60
2022-10-01T09:12:52.661Z,68.10
2022-10-01T09:15:45.530Z,68.60
2022-10-01T09:18:25.786Z,69.40
2022-10-01T09:20:57.437Z,70.20
2022-10-01T09:23:30.147Z,70.00
2022-10-01T09:26:00.240Z,70.10
2022-10-01T09:28:34.862Z,70.00
2022-10-01T09:31:22.685Z,68.90
2022-10-01T09:34:10.903Z,67.60
2022-10-01T09:37:18.294Z,67.10
2022-10-01T09:40:00.658Z,66.20
2022-10-01T09:42:29.167Z,65.40
2022-10-01T09:44:57.408Z,64.70
2022-10-01T09:47:28.192Z,64.80
2022-10-01T09:49:57.034Z,64.80
2022-10-01T09:52:31.720Z,65.00
2022-10-01T09:55:11.279Z,65.70
2022-10-01T09:57:46.358Z,65.80
2022-10-01T10:00:20.745Z,66.50
2022-10-01T10:02:50.087Z,66.00
2022-10-01T10:05:23.461Z,64.70
2022-10-01T10:08:05.790Z,62.80
2022-10-01T10:10:39.507Z,60.60
2022-10-01T10:13:10.821Z,59.90
2022-10-01T10:15:59.435Z,60.20
2022-10-01T10:18:35.355Z,60.70
2022-10-01T10:21:07.434Z,61.70
2022-10-01T10:23:34.986Z,59.90
2022-10-01T10:26:04.994Z,57.50
2022-10-01T10:28:44.778Z,54.50
2022-10-01T10:31:19.918Z,52.30
2022-10-01T10:33:51.261Z,52.30
2022-10-01T10:36:19.860Z,53.60
2022-10-01T10:38:53.736Z,54.70
2022-10-01T10:41:26.223Z,55.90
2022-10-01T10:44:15.447Z,56.60
2022-10-01T10:46:46.294Z,57.10
2022-10-01T10:49:30.121Z,53.80
2022-10-01T10:52:01.740Z,51.20
2022-10-01T10:54:40.657Z,46.90
2022-10-01T10:57:21.259Z,43.40
2022-10-01T10:59:57.186Z,39.30
2022-10-01T11:02:25.489Z,38.70
2022-10-01T11:04:54.912Z,37.50
2022-10-01T11:07:24.746Z,37.50
2022-10-01T11:10:08.963Z,37.90
2022-10-01T11:12:57.428Z,38.50
2022-10-01T11:15:47.094Z,40.40
2022-10-01T11:18:35.269Z,42.70
2022-10-01T11:21:32.703Z,44.90
2022-10-01T11:24:38.588Z,47.00
2022-10-01T11:27:36.538Z,45.10
2022-10-01T11:30:21.534Z,40.30
2022-10-01T11:32:54.417Z,35.50
2022-10-01T11:35:25.639Z,33.60
2022-10-01T11:38:23.311Z,30.70
2022-10-01T11:41:13.877Z,32.50
2022-10-01T11:44:00.220Z,36.00
2022-10-01T11:48:25.453Z,41.20
2022-10-01T11:50:55.373Z,45.30
2022-10-01T11:53:30.891Z,47.20
2022-10-01T11:56:29.334Z,48.70
2022-10-01T11:59:02.193Z,49.20
2022-10-01T12:01:35.043Z,49.20
2022-10-01T12:04:20.135Z,51.00
2022-10-01T12:07:07.228Z,49.50
2022-10-01T12:09:39.746Z,45.40
2022-10-01T12:12:17.183Z,44.00
2022-10-01T12:15:15.423Z,42.00
2022-10-01T12:17:51.376Z,42.00
2022-10-01T12:20:27.374Z,43.80
2022-10-01T12:22:56.273Z,43.60
2022-10-01T12:25:29.016Z,46.70
2022-10-01T12:28:05.655Z,48.70
2022-10-01T12:30:42.118Z,50.30
2022-10-01T12:33:46.401Z,51.60
2022-10-01T12:36:37.015Z,52.70
2022-10-01T12:39:20.272Z,54.80
2022-10-01T12:41:47.074Z,55.40
2022-10-01T12:44:37.040Z,52.80
2022-10-01T12:47:36.411Z,48.10
2022-10-01T12:50:19.062Z,43.80
2022-10-01T12:53:25.723Z,39.70
2022-10-01T12:56:13.440Z,38.20
2022-10-01T12:58:52.168Z,39.60
2022-10-01T13:01:54.931Z,39.70
2022-10-01T13:04:26.154Z,42.50
2022-10-01T13:07:13.431Z,44.30
2022-10-01T13:09:52.824Z,44.50
2022-10-01T13:12:42.804Z,45.60
2022-10-01T13:15:17.906Z,45.50
2022-10-01T13:17:57.388Z,44.70
2022-10-01T13:20:54.021Z,44.20
2022-10-01T13:23:33.660Z,46.80
2022-10-01T13:26:17.323Z,47.70
2022-10-01T13:28:44.297Z,48.80
2022-10-01T13:31:14.860Z,49.70
2022-10-01T13:33:41.972Z,50.00
2022-10-01T13:36:10.563Z,50.80
2022-10-01T13:38:46.122Z,51.80
2022-10-01T13:41:20.287Z,51.40
2022-10-01T13:44:02.509Z,50.30
2022-10-01T13:46:31.885Z,49.20
2022-10-01T13:49:07.321Z,47.40
2022-10-01T13:51:36.479Z,48.10
2022-10-01T13:54:08.176Z,48.50
2022-10-01T13:56:37.768Z,50.00
2022-10-01T13:59:21.435Z,51.20
2022-10-01T14:01:48.262Z,49.40
2022-10-01T14:04:40.285Z,48.40
2022-10-01T14:07:17.787Z,49.80
2022-10-01T14:09:52.817Z,50.40
2022-10-01T14:12:52.939Z,50.40
2022-10-01T14:15:58.253Z,50.50
2022-10-01T14:18:29.977Z,49.80
2022-10-01T14:21:07.044Z,48.90
2022-10-01T14:23:56.919Z,49.00
2022-10-01T14:26:49.016Z,48.70
2022-10-01T14:29:37.841Z,47.40
2022-10-01T14:32:42.209Z,47.50
2022-10-01T14:35:20.960Z,48.00
2022-10-01T14:37:47.820Z,47.30
2022-10-01T14:40:23.433Z,47.60
2022-10-01T14:43:00.894Z,46.90
2022-10-01T14:45:28.624Z,47.60
2022-10-01T14:48:07.409Z,48.60
2022-10-01T14:50:37.221Z,48.90
2022-10-01T14:53:04.409Z,49.30
2022-10-01T14:55:31.499Z,49.60
2022-10-01T14:57:58.666Z,49.10
2022-10-01T15:00:30.455Z,50.80
2022-10-01T15:03:15.215Z,51.30
2022-10-01T15:05:43.493Z,49.80
2022-10-01T15:08:20.591Z,50.00
2022-10-01T15:10:58.204Z,50.70
2022-10-01T15:13:32.830Z,50.90
2022-10-01T15:15:59.814Z,51.00
2022-10-01T15:18:27.055Z,51.10
2022-10-01T15:20:57.645Z,51.60
2022-10-01T15:23:26.333Z,51.60
2022-10-01T15:25:54.664Z,51.10
2022-10-01T15:28:35.276Z,51.10
2022-10-01T15:31:04.205Z,50.60
2022-10-01T15:33:33.875Z,51.00
2022-10-01T15:36:06.060Z,50.80
2022-10-01T15:38:33.844Z,50.60
2022-10-01T15:41:29.825Z,51.00
2022-10-01T15:43:53.103Z,49.90
2022-10-01T15:46:22.872Z,51.00
2022-10-01T15:49:16.181Z,51.10
2022-10-01T15:52:35.703Z,51.00
2022-10-01T15:55:02.420Z,51.90
2022-10-01T15:57:33.420Z,52.10
2022-10-01T16:00:00.290Z,52.20
2022-10-01T16:02:30.939Z,53.50
2022-10-01T16:05:06.242Z,52.00
2022-10-01T16:07:36.282Z,52.40
2022-10-01T16:10:37.101Z,52.50
2022-10-01T16:13:38.062Z,52.90
2022-10-01T16:16:10.856Z,53.20
2022-10-01T16:18:37.620Z,53.70
2022-10-01T16:21:06.048Z,53.30
2022-10-01T16:23:42.276Z,53.40
2022-10-01T16:26:27.280Z,52.90
2022-10-01T16:29:13.394Z,53.20
2022-10-01T16:31:43.511Z,52.20
2022-10-01T16:34:16.375Z,52.00
2022-10-01T16:36:44.467Z,51.70
2022-10-01T16:39:15.420Z,52.40
2022-10-01T16:41:43.863Z,52.20
2022-10-01T16:44:13.590Z,52.20
2022-10-01T16:46:41.478Z,52.30
2022-10-01T16:49:18.279Z,52.50
2022-10-01T16:51:45.205Z,53.40
2022-10-01T16:54:24.189Z,52.30
2022-10-01T16:56:52.289Z,52.50
2022-10-01T16:59:22.324Z,52.50
2022-10-01T17:01:54.962Z,52.50
2022-10-01T17:04:22.956Z,53.10
2022-10-01T17:06:50.200Z,53.80
2022-10-01T17:09:16.936Z,54.50
2022-10-01T17:11:44.052Z,55.50
2022-10-01T17:14:16.755Z,56.10
2022-10-01T17:16:43.920Z,56.30
2022-10-01T17:19:12.591Z,58.50
2022-10-01T17:21:39.712Z,58.40
2022-10-01T17:24:10.622Z,57.90
2022-10-01T17:26:42.250Z,58.00
2022-10-01T17:29:09.577Z,58.10
2022-10-01T17:31:37.923Z,58.20
2022-10-01T17:34:04.952Z,58.20
2022-10-01T17:36:32.501Z,58.40
2022-10-01T17:38:59.336Z,58.50
2022-10-01T17:41:26.051Z,58.50
2022-10-01T17:43:53.240Z,58.60
2022-10-01T17:46:20.093Z,58.80
2022-10-01T17:48:50.792Z,58.90
2022-10-01T17:51:17.559Z,59.10
2022-10-01T17:53:44.300Z,59.30
2022-10-01T17:56:17.486Z,59.40
2022-10-01T17:58:46.069Z,59.50
2022-10-01T18:01:17.410Z,59.60
2022-10-01T18:03:44.281Z,59.80
2022-10-01T18:06:15.471Z,60.00
2022-10-01T18:08:55.088Z,60.10
2022-10-01T18:11:22.590Z,60.20
2022-10-01T18:13:50.629Z,60.20
2022-10-01T18:16:19.395Z,61.00
2022-10-01T18:21:33.235Z,60.40
2022-10-01T18:24:04.159Z,60.50
2022-10-01T18:26:32.356Z,60.60
2022-10-01T18:28:59.258Z,60.70
2022-10-01T18:31:32.725Z,60.70
2022-10-01T18:34:01.079Z,60.80
2022-10-01T18:36:51.276Z,60.80
2022-10-01T18:39:38.137Z,60.80
2022-10-01T18:42:34.164Z,60.70
2022-10-01T18:45:02.769Z,60.80
2022-10-01T18:48:19.790Z,60.60
2022-10-01T18:50:49.549Z,60.80
2022-10-01T18:53:21.961Z,61.40
2022-10-01T18:55:51.672Z,60.80
2022-10-01T18:58:33.440Z,60.90
2022-10-01T19:01:35.603Z,61.00
2022-10-01T19:04:42.847Z,61.10
2022-10-01T19:07:39.318Z,61.00
2022-10-01T19:10:26.575Z,61.00
2022-10-01T19:12:56.363Z,61.20
2022-10-01T19:15:52.164Z,61.40
2022-10-01T19:19:07.134Z,61.50
2022-10-01T19:21:52.652Z,61.60
2022-10-01T19:24:42.418Z,61.50
2022-10-01T19:27:36.472Z,61.50
2022-10-01T19:30:14.246Z,61.40
2022-10-01T19:32:56.507Z,61.30
2022-10-01T19:35:49.972Z,61.50
2022-10-01T19:38:39.449Z,61.40
2022-10-01T19:41:31.802Z,61.30
2022-10-01T19:44:11.881Z,61.20
2022-10-01T19:46:47.170Z,61.10
2022-10-01T19:49:32.791Z,61.00
2022-10-01T19:52:02.337Z,61.00
2022-10-01T19:54:42.000Z,61.00
2022-10-01T19:57:24.938Z,61.00
2022-10-01T19:59:55.919Z,61.00
2022-10-01T20:02:45.746Z,60.90
2022-10-01T20:05:21.797Z,60.90
2022-10-01T20:08:01.399Z,60.80
2022-10-01T20:10:43.708Z,60.80
2022-10-01T20:13:19.287Z,60.80
2022-10-01T20:15:55.715Z,60.60
2022-10-01T20:18:47.741Z,60.70
2022-10-01T20:21:23.443Z,60.80
2022-10-01T20:23:53.116Z,61.50
2022-10-01T20:26:30.796Z,60.60
2022-10-01T20:29:36.575Z,60.80
2022-10-01T20:32:15.611Z,60.90
2022-10-01T20:35:09.772Z,60.90
2022-10-01T20:38:06.898Z,61.00
2022-10-01T20:40:50.565Z,61.60
2022-10-01T20:43:20.444Z,60.80
2022-10-01T20:45:51.437Z,60.60
2022-10-01T20:48:22.527Z,60.60
2022-10-01T20:50:53.762Z,60.70
2022-10-01T20:53:42.144Z,60.90
2022-10-01T20:56:17.833Z,60.90
2022-10-01T20:58:53.512Z,61.00
2022-10-01T21:01:23.900Z,61.10
2022-10-01T21:04:21.012Z,61.20
2022-10-01T21:06:50.961Z,61.30
2022-10-01T21:09:40.709Z,61.30
2022-10-01T21:12:16.645Z,61.40
2022-10-01T21:14:53.575Z,61.30
2022-10-01T21:17:48.741Z,61.30
2022-10-01T21:20:27.263Z,61.50
2022-10-01T21:23:22.069Z,61.40
2022-10-01T21:26:13.064Z,61.60
2022-10-01T21:29:03.402Z,61.70
2022-10-01T21:31:45.743Z,61.80
2022-10-01T21:34:51.159Z,61.70
2022-10-01T21:37:21.719Z,62.00
2022-10-01T21:40:12.479Z,62.00
2022-10-01T21:42:54.205Z,62.20
2022-10-01T21:46:02.630Z,62.20
2022-10-01T21:48:40.060Z,62.40
2022-10-01T21:51:17.263Z,62.30
2022-10-01T21:54:02.667Z,62.50
2022-10-01T21:56:53.005Z,62.70
2022-10-01T21:59:39.048Z,62.80
2022-10-01T22:02:22.403Z,62.70
2022-10-01T22:05:22.593Z,63.00
2022-10-01T22:08:03.436Z,62.90
2022-10-01T22:10:41.008Z,63.00
2022-10-01T22:13:25.931Z,63.30
2022-10-01T22:15:56.812Z,63.60
2022-10-01T22:18:55.221Z,63.70
2022-10-01T22:21:32.520Z,64.00
2022-10-01T22:24:11.167Z,64.30
2022-10-01T22:26:44.196Z,64.70
2022-10-01T22:29:18.218Z,64.90
2022-10-01T22:31:47.401Z,65.20
2022-10-01T22:34:20.399Z,65.30
2022-10-01T22:37:04.518Z,65.40
2022-10-01T22:39:37.403Z,65.50
2022-10-01T22:42:15.067Z,65.50
2022-10-01T22:44:42.143Z,65.60
2022-10-01T22:47:31.024Z,65.80
2022-10-01T22:50:17.072Z,66.30
2022-10-01T22:53:28.236Z,67.10
2022-10-01T22:55:57.395Z,68.50
2022-10-01T22:58:54.112Z,69.50
2022-10-01T23:01:45.097Z,70.00
2022-10-01T23:04:30.964Z,70.20
2022-10-01T23:07:00.508Z,70.20
2022-10-01T23:09:41.411Z,70.10
2022-10-01T23:12:14.489Z,69.80
2022-10-01T23:15:00.403Z,69.80
2022-10-01T23:17:37.003Z,70.10
2022-10-01T23:20:22.592Z,69.60
2022-10-01T23:23:12.514Z,69.50
2022-10-01T23:26:13.444Z,69.30
2022-10-01T23:28:54.159Z,69.00
2022-10-01T23:31:33.121Z,68.60
2022-10-01T23:34:20.986Z,68.50
2022-10-01T23:36:55.678Z,68.40
2022-10-01T23:39:34.847Z,67.90
2022-10-01T23:42:24.412Z,67.80
2022-10-01T23:45:04.760Z,67.50
2022-10-01T23:47:45.491Z,67.00
2022-10-01T23:50:21.541Z,66.80
2022-10-01T23:52:59.724Z,66.50
2022-10-01T23:55:58.717Z,66.20
2022-10-01T23:58:29.064Z,66.00
